sensor_id;sensor_type;location;lat;lon;timestamp;pressure;altitude;pressure_sealevel;temperature;humidity
10115;BME280;5097;43.260;27.812;2023-08-06T00:00:33;98965.59;;;25.68;100.00
10115;BME280;5097;43.260;27.812;2023-08-06T00:03:17;98970.78;;;25.63;100.00
10115;BME280;5097;43.260;27.812;2023-08-06T00:06:01;98959.16;;;25.42;100.00
10115;BME280;5097;43.260;27.812;2023-08-06T00:08:45;98948.06;;;25.24;100.00
10115;BME280;5097;43.260;27.812;2023-08-06T00:11:29;98949.53;;;25.33;100.00
10115;BME280;5097;43.260;27.812;2023-08-06T00:14:14;98930.78;;;25.18;100.00
10115;BME280;5097;43.260;27.812;2023-08-06T00:17:00;98933.31;;;25.33;100.00
10115;BME280;5097;43.260;27.812;2023-08-06T00:19:43;98916.25;;;25.26;100.00
10115;BME280;5097;43.260;27.812;2023-08-06T00:22:27;98928.53;;;25.29;100.00
10115;BME280;5097;43.260;27.812;2023-08-06T00:25:11;98934.97;;;25.27;100.00
10115;BME280;5097;43.260;27.812;2023-08-06T00:27:55;98931.00;;;25.30;100.00
10115;BME280;5097;43.260;27.812;2023-08-06T00:30:40;98931.84;;;25.24;100.00
10115;BME280;5097;43.260;27.812;2023-08-06T00:33:25;98902.94;;;25.04;100.00
10115;BME280;5097;43.260;27.812;2023-08-06T00:36:09;98926.84;;;25.21;100.00
10115;BME280;5097;43.260;27.812;2023-08-06T00:38:53;98912.94;;;25.24;100.00
10115;BME280;5097;43.260;27.812;2023-08-06T00:41:38;98900.88;;;25.20;100.00
10115;BME280;5097;43.260;27.812;2023-08-06T00:44:22;98924.19;;;25.41;100.00
10115;BME280;5097;43.260;27.812;2023-08-06T00:47:07;98922.72;;;25.38;100.00
10115;BME280;5097;43.260;27.812;2023-08-06T00:49:52;98923.53;;;25.19;100.00
10115;BME280;5097;43.260;27.812;2023-08-06T00:52:36;98907.72;;;25.09;100.00
10115;BME280;5097;43.260;27.812;2023-08-06T00:55:20;98909.75;;;24.87;100.00
10115;BME280;5097;43.260;27.812;2023-08-06T00:58:04;98911.84;;;24.98;100.00
10115;BME280;5097;43.260;27.812;2023-08-06T01:00:48;98918.94;;;25.13;100.00
10115;BME280;5097;43.260;27.812;2023-08-06T01:03:34;98921.44;;;25.21;100.00
10115;BME280;5097;43.260;27.812;2023-08-06T01:06:19;98915.66;;;25.24;100.00
10115;BME280;5097;43.260;27.812;2023-08-06T01:09:12;98914.63;;;25.38;100.00
10115;BME280;5097;43.260;27.812;2023-08-06T01:12:08;98904.66;;;25.39;100.00
10115;BME280;5097;43.260;27.812;2023-08-06T01:15:01;98874.25;;;25.17;100.00
10115;BME280;5097;43.260;27.812;2023-08-06T01:17:48;98890.91;;;25.27;100.00
10115;BME280;5097;43.260;27.812;2023-08-06T01:20:34;98902.13;;;25.24;100.00
10115;BME280;5097;43.260;27.812;2023-08-06T01:23:19;98886.13;;;25.16;100.00
10115;BME280;5097;43.260;27.812;2023-08-06T01:26:10;98882.13;;;25.12;100.00
10115;BME280;5097;43.260;27.812;2023-08-06T01:28:59;98880.06;;;25.00;100.00
10115;BME280;5097;43.260;27.812;2023-08-06T01:31:48;98857.19;;;24.83;100.00
10115;BME280;5097;43.260;27.812;2023-08-06T01:34:34;98867.13;;;24.62;100.00
10115;BME280;5097;43.260;27.812;2023-08-06T01:37:20;98839.41;;;24.40;100.00
10115;BME280;5097;43.260;27.812;2023-08-06T01:40:06;98850.78;;;24.22;100.00
10115;BME280;5097;43.260;27.812;2023-08-06T01:42:51;98852.03;;;24.26;100.00
10115;BME280;5097;43.260;27.812;2023-08-06T01:45:35;98837.59;;;24.05;100.00
10115;BME280;5097;43.260;27.812;2023-08-06T01:48:19;98839.03;;;24.01;100.00
10115;BME280;5097;43.260;27.812;2023-08-06T01:51:04;98841.66;;;23.88;100.00
10115;BME280;5097;43.260;27.812;2023-08-06T01:53:49;98842.19;;;24.05;100.00
10115;BME280;5097;43.260;27.812;2023-08-06T01:56:33;98746.22;;;23.40;100.00
10115;BME280;5097;43.260;27.812;2023-08-06T01:59:17;98807.78;;;23.79;100.00
10115;BME280;5097;43.260;27.812;2023-08-06T02:02:01;98842.66;;;23.87;100.00
10115;BME280;5097;43.260;27.812;2023-08-06T02:04:45;98841.41;;;23.83;100.00
10115;BME280;5097;43.260;27.812;2023-08-06T02:07:29;98826.16;;;23.90;100.00
10115;BME280;5097;43.260;27.812;2023-08-06T02:10:15;98834.22;;;23.90;100.00
10115;BME280;5097;43.260;27.812;2023-08-06T02:13:00;98825.31;;;23.96;100.00
10115;BME280;5097;43.260;27.812;2023-08-06T02:15:44;98797.94;;;23.64;100.00
10115;BME280;5097;43.260;27.812;2023-08-06T02:18:30;98808.19;;;23.75;100.00
10115;BME280;5097;43.260;27.812;2023-08-06T02:21:14;98792.13;;;23.54;100.00
10115;BME280;5097;43.260;27.812;2023-08-06T02:23:58;98805.91;;;23.44;100.00
10115;BME280;5097;43.260;27.812;2023-08-06T02:26:46;98801.28;;;23.66;100.00
10115;BME280;5097;43.260;27.812;2023-08-06T02:29:32;98789.00;;;23.57;100.00
10115;BME280;5097;43.260;27.812;2023-08-06T02:32:16;98786.78;;;23.67;100.00
10115;BME280;5097;43.260;27.812;2023-08-06T02:35:00;98804.47;;;23.76;100.00
10115;BME280;5097;43.260;27.812;2023-08-06T02:37:45;98789.75;;;23.79;100.00
10115;BME280;5097;43.260;27.812;2023-08-06T02:40:29;98779.19;;;23.84;100.00
10115;BME280;5097;43.260;27.812;2023-08-06T02:43:14;98802.94;;;24.02;100.00
10115;BME280;5097;43.260;27.812;2023-08-06T02:45:59;98805.06;;;24.14;100.00
10115;BME280;5097;43.260;27.812;2023-08-06T02:48:43;98813.00;;;24.22;100.00
10115;BME280;5097;43.260;27.812;2023-08-06T02:51:28;98820.69;;;24.25;100.00
10115;BME280;5097;43.260;27.812;2023-08-06T02:54:12;98821.06;;;24.15;100.00
10115;BME280;5097;43.260;27.812;2023-08-06T02:56:56;98821.88;;;24.16;100.00
10115;BME280;5097;43.260;27.812;2023-08-06T02:59:46;98817.06;;;24.04;100.00
10115;BME280;5097;43.260;27.812;2023-08-06T03:02:33;98822.25;;;23.99;100.00
10115;BME280;5097;43.260;27.812;2023-08-06T03:05:32;98833.72;;;24.15;100.00
10115;BME280;5097;43.260;27.812;2023-08-06T03:08:17;98831.38;;;23.98;100.00
10115;BME280;5097;43.260;27.812;2023-08-06T03:11:06;98822.78;;;23.88;100.00
10115;BME280;5097;43.260;27.812;2023-08-06T03:13:50;98821.16;;;23.93;100.00
10115;BME280;5097;43.260;27.812;2023-08-06T03:16:36;98836.81;;;24.12;100.00
10115;BME280;5097;43.260;27.812;2023-08-06T03:19:20;98837.44;;;24.14;100.00
10115;BME280;5097;43.260;27.812;2023-08-06T03:22:04;98841.56;;;24.09;100.00
10115;BME280;5097;43.260;27.812;2023-08-06T03:24:50;98839.50;;;24.12;100.00
10115;BME280;5097;43.260;27.812;2023-08-06T03:27:37;98848.06;;;24.22;100.00
10115;BME280;5097;43.260;27.812;2023-08-06T03:30:22;98841.63;;;24.23;100.00
10115;BME280;5097;43.260;27.812;2023-08-06T03:33:10;98840.44;;;24.46;100.00
10115;BME280;5097;43.260;27.812;2023-08-06T03:35:54;98836.75;;;24.53;100.00
10115;BME280;5097;43.260;27.812;2023-08-06T03:38:39;98835.72;;;24.61;100.00
10115;BME280;5097;43.260;27.812;2023-08-06T03:41:24;98829.97;;;24.77;100.00
10115;BME280;5097;43.260;27.812;2023-08-06T03:44:08;98840.19;;;25.02;100.00
10115;BME280;5097;43.260;27.812;2023-08-06T03:46:52;98820.84;;;25.05;100.00
10115;BME280;5097;43.260;27.812;2023-08-06T03:49:38;98819.38;;;25.23;100.00
10115;BME280;5097;43.260;27.812;2023-08-06T03:52:23;98835.59;;;24.83;100.00
10115;BME280;5097;43.260;27.812;2023-08-06T03:55:07;98812.72;;;24.79;100.00
10115;BME280;5097;43.260;27.812;2023-08-06T03:57:52;98820.22;;;25.03;100.00
10115;BME280;5097;43.260;27.812;2023-08-06T04:00:37;98816.47;;;24.84;100.00
10115;BME280;5097;43.260;27.812;2023-08-06T04:03:21;98826.84;;;25.07;100.00
10115;BME280;5097;43.260;27.812;2023-08-06T04:06:07;98820.63;;;25.27;100.00
10115;BME280;5097;43.260;27.812;2023-08-06T04:08:52;98828.09;;;25.52;100.00
10115;BME280;5097;43.260;27.812;2023-08-06T04:11:35;98819.75;;;25.73;100.00
10115;BME280;5097;43.260;27.812;2023-08-06T04:14:19;98823.88;;;25.89;100.00
10115;BME280;5097;43.260;27.812;2023-08-06T04:17:04;98820.28;;;26.09;99.41
10115;BME280;5097;43.260;27.812;2023-08-06T04:19:50;98822.47;;;26.25;98.85
10115;BME280;5097;43.260;27.812;2023-08-06T04:22:36;98816.69;;;26.22;98.37
10115;BME280;5097;43.260;27.812;2023-08-06T04:25:20;98826.28;;;26.18;99.67
10115;BME280;5097;43.260;27.812;2023-08-06T04:28:04;98815.75;;;26.35;98.64
10115;BME280;5097;43.260;27.812;2023-08-06T04:30:48;98815.31;;;26.45;97.71
10115;BME280;5097;43.260;27.812;2023-08-06T04:33:32;98814.19;;;26.59;96.80
10115;BME280;5097;43.260;27.812;2023-08-06T04:36:21;98816.19;;;26.70;96.65
10115;BME280;5097;43.260;27.812;2023-08-06T04:39:07;98815.84;;;26.92;95.53
10115;BME280;5097;43.260;27.812;2023-08-06T04:41:51;98807.38;;;27.07;94.36
10115;BME280;5097;43.260;27.812;2023-08-06T04:44:35;98799.25;;;26.82;94.81
10115;BME280;5097;43.260;27.812;2023-08-06T04:47:20;98794.28;;;26.79;96.09
10115;BME280;5097;43.260;27.812;2023-08-06T04:50:05;98792.25;;;26.99;94.65
10115;BME280;5097;43.260;27.812;2023-08-06T04:52:49;98780.44;;;27.12;93.22
10115;BME280;5097;43.260;27.812;2023-08-06T04:55:34;98775.25;;;27.10;92.30
10115;BME280;5097;43.260;27.812;2023-08-06T04:58:18;98772.59;;;27.29;92.38
10115;BME280;5097;43.260;27.812;2023-08-06T05:01:02;98772.56;;;27.54;91.67
10115;BME280;5097;43.260;27.812;2023-08-06T05:03:46;98770.13;;;27.65;90.06
10115;BME280;5097;43.260;27.812;2023-08-06T05:06:31;98766.75;;;27.88;89.57
10115;BME280;5097;43.260;27.812;2023-08-06T05:09:15;98755.56;;;27.96;87.76
10115;BME280;5097;43.260;27.812;2023-08-06T05:12:01;98772.78;;;28.08;86.01
10115;BME280;5097;43.260;27.812;2023-08-06T05:14:45;98773.69;;;27.84;87.48
10115;BME280;5097;43.260;27.812;2023-08-06T05:17:29;98774.59;;;28.15;87.58
10115;BME280;5097;43.260;27.812;2023-08-06T05:20:13;98768.25;;;28.63;84.71
10115;BME280;5097;43.260;27.812;2023-08-06T05:22:58;98777.31;;;28.57;83.66
10115;BME280;5097;43.260;27.812;2023-08-06T05:25:42;98768.03;;;28.04;85.15
10115;BME280;5097;43.260;27.812;2023-08-06T05:28:27;98763.88;;;28.20;84.74
10115;BME280;5097;43.260;27.812;2023-08-06T05:31:11;98776.16;;;28.34;85.17
10115;BME280;5097;43.260;27.812;2023-08-06T05:33:55;98772.44;;;28.17;85.53
10115;BME280;5097;43.260;27.812;2023-08-06T05:36:39;98766.91;;;28.54;84.54
10115;BME280;5097;43.260;27.812;2023-08-06T05:39:23;98760.59;;;28.30;84.92
10115;BME280;5097;43.260;27.812;2023-08-06T05:42:07;98756.16;;;28.17;85.08
10115;BME280;5097;43.260;27.812;2023-08-06T05:44:52;98725.97;;;27.95;85.33
10115;BME280;5097;43.260;27.812;2023-08-06T05:47:36;98752.94;;;28.08;85.48
10115;BME280;5097;43.260;27.812;2023-08-06T05:50:20;98761.84;;;27.78;87.43
10115;BME280;5097;43.260;27.812;2023-08-06T05:53:04;98761.91;;;27.90;86.67
10115;BME280;5097;43.260;27.812;2023-08-06T05:55:48;98765.59;;;28.14;85.41
10115;BME280;5097;43.260;27.812;2023-08-06T05:58:32;98754.16;;;28.12;84.24
10115;BME280;5097;43.260;27.812;2023-08-06T06:01:18;98749.25;;;28.02;84.13
10115;BME280;5097;43.260;27.812;2023-08-06T06:04:03;98740.78;;;28.41;83.02
10115;BME280;5097;43.260;27.812;2023-08-06T06:06:47;98744.75;;;28.26;83.53
10115;BME280;5097;43.260;27.812;2023-08-06T06:09:31;98739.59;;;28.37;82.38
10115;BME280;5097;43.260;27.812;2023-08-06T06:12:15;98736.72;;;28.32;82.79
10115;BME280;5097;43.260;27.812;2023-08-06T06:14:59;98746.09;;;28.48;81.71
10115;BME280;5097;43.260;27.812;2023-08-06T06:17:47;98717.06;;;28.48;80.87
10115;BME280;5097;43.260;27.812;2023-08-06T06:20:32;98746.06;;;28.78;78.76
10115;BME280;5097;43.260;27.812;2023-08-06T06:23:15;98740.19;;;29.17;77.53
10115;BME280;5097;43.260;27.812;2023-08-06T06:25:59;98655.34;;;28.79;77.23
10115;BME280;5097;43.260;27.812;2023-08-06T06:28:43;98740.22;;;29.29;75.61
10115;BME280;5097;43.260;27.812;2023-08-06T06:31:27;98749.81;;;29.84;73.99
10115;BME280;5097;43.260;27.812;2023-08-06T06:34:13;98742.88;;;28.69;76.42
10115;BME280;5097;43.260;27.812;2023-08-06T06:36:57;98750.25;;;29.28;75.50
10115;BME280;5097;43.260;27.812;2023-08-06T06:39:41;98749.03;;;29.59;73.41
10115;BME280;5097;43.260;27.812;2023-08-06T06:42:26;98749.31;;;29.34;73.03
10115;BME280;5097;43.260;27.812;2023-08-06T06:45:15;98737.75;;;29.91;72.49
10115;BME280;5097;43.260;27.812;2023-08-06T06:47:59;98753.66;;;29.00;74.43
10115;BME280;5097;43.260;27.812;2023-08-06T06:50:47;98750.47;;;28.91;74.96
10115;BME280;5097;43.260;27.812;2023-08-06T06:53:31;98746.66;;;29.63;73.34
10115;BME280;5097;43.260;27.812;2023-08-06T06:56:15;98714.72;;;29.58;72.56
10115;BME280;5097;43.260;27.812;2023-08-06T06:58:59;98732.19;;;29.74;72.18
10115;BME280;5097;43.260;27.812;2023-08-06T07:01:43;98733.09;;;29.92;71.37
10115;BME280;5097;43.260;27.812;2023-08-06T07:04:26;98740.47;;;29.80;71.28
10115;BME280;5097;43.260;27.812;2023-08-06T07:07:12;98713.56;;;29.42;72.23
10115;BME280;5097;43.260;27.812;2023-08-06T07:09:56;98735.41;;;29.71;71.56
10115;BME280;5097;43.260;27.812;2023-08-06T07:12:40;98722.91;;;29.47;71.61
10115;BME280;5097;43.260;27.812;2023-08-06T07:15:24;98740.13;;;30.17;70.07
10115;BME280;5097;43.260;27.812;2023-08-06T07:18:08;98728.09;;;29.60;72.23
10115;BME280;5097;43.260;27.812;2023-08-06T07:20:53;98723.97;;;29.46;73.06
10115;BME280;5097;43.260;27.812;2023-08-06T07:23:39;98732.22;;;29.63;72.01
10115;BME280;5097;43.260;27.812;2023-08-06T07:26:23;98739.78;;;30.13;70.53
10115;BME280;5097;43.260;27.812;2023-08-06T07:29:07;98731.84;;;30.12;69.50
10115;BME280;5097;43.260;27.812;2023-08-06T07:31:51;98728.91;;;30.59;69.33
10115;BME280;5097;43.260;27.812;2023-08-06T07:34:35;98729.97;;;30.75;68.27
10115;BME280;5097;43.260;27.812;2023-08-06T07:37:19;98730.50;;;30.43;68.85
10115;BME280;5097;43.260;27.812;2023-08-06T07:40:05;98736.56;;;30.96;66.75
10115;BME280;5097;43.260;27.812;2023-08-06T07:42:49;98714.63;;;31.25;65.32
10115;BME280;5097;43.260;27.812;2023-08-06T07:45:34;98737.63;;;31.68;64.52
10115;BME280;5097;43.260;27.812;2023-08-06T07:48:18;98723.13;;;31.46;64.49
10115;BME280;5097;43.260;27.812;2023-08-06T07:51:02;98739.13;;;30.86;67.21
10115;BME280;5097;43.260;27.812;2023-08-06T07:53:46;98724.91;;;30.50;68.24
10115;BME280;5097;43.260;27.812;2023-08-06T07:56:32;98694.59;;;29.71;69.92
10115;BME280;5097;43.260;27.812;2023-08-06T07:59:16;98736.13;;;29.55;71.42
10115;BME280;5097;43.260;27.812;2023-08-06T08:02:00;98728.97;;;29.77;71.59
10115;BME280;5097;43.260;27.812;2023-08-06T08:04:44;98739.28;;;30.16;69.70
10115;BME280;5097;43.260;27.812;2023-08-06T08:07:29;98722.06;;;30.28;69.12
10115;BME280;5097;43.260;27.812;2023-08-06T08:10:14;98745.28;;;30.30;69.33
10115;BME280;5097;43.260;27.812;2023-08-06T08:12:59;98752.53;;;29.96;70.68
10115;BME280;5097;43.260;27.812;2023-08-06T08:15:44;98721.94;;;30.05;69.95
10115;BME280;5097;43.260;27.812;2023-08-06T08:18:28;98730.22;;;30.56;68.41
10115;BME280;5097;43.260;27.812;2023-08-06T08:21:14;98744.28;;;30.36;69.55
10115;BME280;5097;43.260;27.812;2023-08-06T08:23:59;98734.59;;;30.57;68.73
10115;BME280;5097;43.260;27.812;2023-08-06T08:26:44;98754.59;;;30.97;67.59
10115;BME280;5097;43.260;27.812;2023-08-06T08:29:29;98716.25;;;30.87;67.07
10115;BME280;5097;43.260;27.812;2023-08-06T08:32:13;98739.88;;;30.81;67.61
10115;BME280;5097;43.260;27.812;2023-08-06T08:34:57;98736.50;;;30.91;67.64
10115;BME280;5097;43.260;27.812;2023-08-06T08:37:42;98702.28;;;31.39;65.45
10115;BME280;5097;43.260;27.812;2023-08-06T08:40:31;98725.50;;;30.52;66.72
10115;BME280;5097;43.260;27.812;2023-08-06T08:43:15;98722.13;;;30.16;68.08
10115;BME280;5097;43.260;27.812;2023-08-06T08:46:02;98704.97;;;30.32;67.26
10115;BME280;5097;43.260;27.812;2023-08-06T08:48:48;98715.22;;;30.25;66.95
10115;BME280;5097;43.260;27.812;2023-08-06T08:51:32;98710.03;;;29.95;68.05
10115;BME280;5097;43.260;27.812;2023-08-06T08:54:17;98711.69;;;30.41;66.58
10115;BME280;5097;43.260;27.812;2023-08-06T08:57:02;98720.88;;;30.52;65.80
10115;BME280;5097;43.260;27.812;2023-08-06T08:59:46;98702.66;;;30.24;66.78
10115;BME280;5097;43.260;27.812;2023-08-06T09:02:33;98698.34;;;30.57;66.46
10115;BME280;5097;43.260;27.812;2023-08-06T09:05:18;98705.84;;;30.84;64.89
10115;BME280;5097;43.260;27.812;2023-08-06T09:08:04;98719.22;;;30.85;64.07
10115;BME280;5097;43.260;27.812;2023-08-06T09:10:48;98704.19;;;30.83;64.72
10115;BME280;5097;43.260;27.812;2023-08-06T09:13:36;98709.91;;;30.81;64.56
10115;BME280;5097;43.260;27.812;2023-08-06T09:16:20;98688.56;;;30.95;63.79
10115;BME280;5097;43.260;27.812;2023-08-06T09:19:09;98684.38;;;31.04;63.04
10115;BME280;5097;43.260;27.812;2023-08-06T09:21:56;98671.59;;;30.08;66.54
10115;BME280;5097;43.260;27.812;2023-08-06T09:24:41;98676.00;;;30.94;64.83
10115;BME280;5097;43.260;27.812;2023-08-06T09:27:25;98666.66;;;30.90;64.58
10115;BME280;5097;43.260;27.812;2023-08-06T09:30:10;98657.78;;;31.17;63.41
10115;BME280;5097;43.260;27.812;2023-08-06T09:32:54;98667.03;;;31.16;63.80
10115;BME280;5097;43.260;27.812;2023-08-06T09:35:39;98655.34;;;31.37;62.75
10115;BME280;5097;43.260;27.812;2023-08-06T09:38:24;98669.53;;;31.39;62.73
10115;BME280;5097;43.260;27.812;2023-08-06T09:41:08;98649.56;;;30.95;63.15
10115;BME280;5097;43.260;27.812;2023-08-06T09:43:52;98660.22;;;30.96;63.94
10115;BME280;5097;43.260;27.812;2023-08-06T09:46:36;98655.69;;;30.85;63.06
10115;BME280;5097;43.260;27.812;2023-08-06T09:49:21;98656.28;;;31.04;63.33
10115;BME280;5097;43.260;27.812;2023-08-06T09:52:10;98657.53;;;31.18;63.29
10115;BME280;5097;43.260;27.812;2023-08-06T09:54:54;98652.34;;;31.00;63.41
10115;BME280;5097;43.260;27.812;2023-08-06T09:57:39;98642.38;;;31.28;62.54
10115;BME280;5097;43.260;27.812;2023-08-06T10:00:23;98639.72;;;31.55;61.53
10115;BME280;5097;43.260;27.812;2023-08-06T10:03:09;98638.22;;;31.64;61.60
10115;BME280;5097;43.260;27.812;2023-08-06T10:05:56;98634.38;;;31.65;61.44
10115;BME280;5097;43.260;27.812;2023-08-06T10:08:42;98636.56;;;31.90;60.34
10115;BME280;5097;43.260;27.812;2023-08-06T10:11:27;98639.38;;;32.28;59.13
10115;BME280;5097;43.260;27.812;2023-08-06T10:14:15;98640.69;;;31.66;60.81
10115;BME280;5097;43.260;27.812;2023-08-06T10:17:00;98639.28;;;31.63;61.22
10115;BME280;5097;43.260;27.812;2023-08-06T10:19:46;98634.47;;;32.03;60.43
10115;BME280;5097;43.260;27.812;2023-08-06T10:22:32;98624.59;;;32.24;59.30
10115;BME280;5097;43.260;27.812;2023-08-06T10:25:18;98618.09;;;32.30;59.61
10115;BME280;5097;43.260;27.812;2023-08-06T10:28:07;98611.06;;;32.39;59.93
10115;BME280;5097;43.260;27.812;2023-08-06T10:30:52;98598.59;;;32.54;58.22
10115;BME280;5097;43.260;27.812;2023-08-06T10:33:43;98601.66;;;32.25;59.81
10115;BME280;5097;43.260;27.812;2023-08-06T10:36:27;98565.97;;;32.37;59.09
10115;BME280;5097;43.260;27.812;2023-08-06T10:39:13;98584.34;;;32.14;60.52
10115;BME280;5097;43.260;27.812;2023-08-06T10:42:21;98589.97;;;32.02;61.04
10115;BME280;5097;43.260;27.812;2023-08-06T10:45:12;98583.16;;;32.37;60.52
10115;BME280;5097;43.260;27.812;2023-08-06T10:47:57;98576.94;;;32.15;60.86
10115;BME280;5097;43.260;27.812;2023-08-06T10:50:42;98588.22;;;32.56;59.45
10115;BME280;5097;43.260;27.812;2023-08-06T10:53:26;98582.19;;;32.54;59.25
10115;BME280;5097;43.260;27.812;2023-08-06T10:56:14;98575.03;;;32.48;60.27
10115;BME280;5097;43.260;27.812;2023-08-06T10:59:00;98584.91;;;32.16;60.50
10115;BME280;5097;43.260;27.812;2023-08-06T11:01:44;98573.06;;;32.05;61.21
10115;BME280;5097;43.260;27.812;2023-08-06T11:04:30;98577.97;;;32.36;59.85
10115;BME280;5097;43.260;27.812;2023-08-06T11:07:14;98549.19;;;32.23;60.63
10115;BME280;5097;43.260;27.812;2023-08-06T11:10:03;98574.22;;;31.55;63.06
10115;BME280;5097;43.260;27.812;2023-08-06T11:12:47;98540.50;;;31.99;61.63
10115;BME280;5097;43.260;27.812;2023-08-06T11:15:33;98548.78;;;32.47;60.14
10115;BME280;5097;43.260;27.812;2023-08-06T11:18:17;98511.66;;;31.75;60.89
10115;BME280;5097;43.260;27.812;2023-08-06T11:21:01;98551.16;;;31.68;62.92
10115;BME280;5097;43.260;27.812;2023-08-06T11:23:45;98571.59;;;31.65;62.95
10115;BME280;5097;43.260;27.812;2023-08-06T11:26:29;98585.97;;;32.48;60.09
10115;BME280;5097;43.260;27.812;2023-08-06T11:29:15;98560.22;;;32.38;59.81
10115;BME280;5097;43.260;27.812;2023-08-06T11:32:05;98562.78;;;31.58;64.44
10115;BME280;5097;43.260;27.812;2023-08-06T11:34:49;98538.63;;;31.99;62.88
10115;BME280;5097;43.260;27.812;2023-08-06T11:37:33;98520.56;;;31.38;64.42
10115;BME280;5097;43.260;27.812;2023-08-06T11:40:18;98507.91;;;31.27;65.16
10115;BME280;5097;43.260;27.812;2023-08-06T11:43:02;98531.97;;;30.47;67.09
10115;BME280;5097;43.260;27.812;2023-08-06T11:45:46;98553.97;;;30.62;67.03
10115;BME280;5097;43.260;27.812;2023-08-06T11:48:31;98562.50;;;30.88;65.32
10115;BME280;5097;43.260;27.812;2023-08-06T11:51:15;98590.19;;;30.80;66.24
10115;BME280;5097;43.260;27.812;2023-08-06T11:53:59;98625.88;;;30.78;65.57
10115;BME280;5097;43.260;27.812;2023-08-06T11:56:46;98717.09;;;29.55;71.23
10115;BME280;5097;43.260;27.812;2023-08-06T11:59:30;98689.69;;;27.89;64.18
10115;BME280;5097;43.260;27.812;2023-08-06T12:02:13;98806.06;;;26.59;84.45
10115;BME280;5097;43.260;27.812;2023-08-06T12:05:00;98718.78;;;24.40;100.00
10115;BME280;5097;43.260;27.812;2023-08-06T12:07:47;98763.41;;;24.36;100.00
10115;BME280;5097;43.260;27.812;2023-08-06T12:10:32;98770.97;;;24.68;100.00
10115;BME280;5097;43.260;27.812;2023-08-06T12:13:16;98756.63;;;24.81;100.00
10115;BME280;5097;43.260;27.812;2023-08-06T12:16:00;98713.38;;;25.14;100.00
10115;BME280;5097;43.260;27.812;2023-08-06T12:18:44;98725.25;;;25.79;100.00
10115;BME280;5097;43.260;27.812;2023-08-06T12:21:30;98693.38;;;25.87;100.00
10115;BME280;5097;43.260;27.812;2023-08-06T12:24:14;98695.97;;;26.14;100.00
10115;BME280;5097;43.260;27.812;2023-08-06T12:26:57;98701.47;;;25.94;100.00
10115;BME280;5097;43.260;27.812;2023-08-06T12:29:42;98696.50;;;26.55;100.00
10115;BME280;5097;43.260;27.812;2023-08-06T12:32:27;98718.44;;;26.79;98.09
10115;BME280;5097;43.260;27.812;2023-08-06T12:35:11;98731.56;;;27.00;92.75
10115;BME280;5097;43.260;27.812;2023-08-06T12:37:58;98713.09;;;27.34;95.16
10115;BME280;5097;43.260;27.812;2023-08-06T12:40:41;98717.44;;;27.35;87.95
10115;BME280;5097;43.260;27.812;2023-08-06T12:43:25;98703.22;;;27.21;85.58
10115;BME280;5097;43.260;27.812;2023-08-06T12:46:09;98690.84;;;25.99;91.28
10115;BME280;5097;43.260;27.812;2023-08-06T12:48:55;98681.31;;;26.29;91.14
10115;BME280;5097;43.260;27.812;2023-08-06T12:51:39;98694.81;;;26.86;91.24
10115;BME280;5097;43.260;27.812;2023-08-06T12:54:25;98700.72;;;27.01;89.42
10115;BME280;5097;43.260;27.812;2023-08-06T12:57:09;98714.50;;;27.43;86.77
10115;BME280;5097;43.260;27.812;2023-08-06T12:59:53;98715.75;;;27.59;85.62
10115;BME280;5097;43.260;27.812;2023-08-06T13:02:37;98723.78;;;27.29;78.02
10115;BME280;5097;43.260;27.812;2023-08-06T13:05:21;98709.25;;;27.60;85.79
10115;BME280;5097;43.260;27.812;2023-08-06T13:08:05;98707.47;;;26.92;82.03
10115;BME280;5097;43.260;27.812;2023-08-06T13:10:50;98704.50;;;27.19;81.75
10115;BME280;5097;43.260;27.812;2023-08-06T13:13:34;98737.94;;;28.05;80.69
10115;BME280;5097;43.260;27.812;2023-08-06T13:16:18;98755.47;;;28.64;87.60
10115;BME280;5097;43.260;27.812;2023-08-06T13:19:03;98754.84;;;28.50;84.09
10115;BME280;5097;43.260;27.812;2023-08-06T13:22:08;98759.09;;;28.15;79.19
10115;BME280;5097;43.260;27.812;2023-08-06T13:24:52;98747.53;;;28.50;79.78
10115;BME280;5097;43.260;27.812;2023-08-06T13:27:37;98729.34;;;28.51;75.53
10115;BME280;5097;43.260;27.812;2023-08-06T13:30:21;98727.03;;;28.66;74.20
10115;BME280;5097;43.260;27.812;2023-08-06T13:33:05;98732.38;;;27.82;69.90
10115;BME280;5097;43.260;27.812;2023-08-06T13:35:49;98714.81;;;27.84;71.51
10115;BME280;5097;43.260;27.812;2023-08-06T13:38:33;98720.72;;;27.81;70.44
10115;BME280;5097;43.260;27.812;2023-08-06T13:41:18;98722.66;;;28.23;70.48
10115;BME280;5097;43.260;27.812;2023-08-06T13:44:04;98726.31;;;28.59;68.51
10115;BME280;5097;43.260;27.812;2023-08-06T13:46:48;98727.91;;;28.36;70.24
10115;BME280;5097;43.260;27.812;2023-08-06T13:49:32;98710.16;;;28.88;68.88
10115;BME280;5097;43.260;27.812;2023-08-06T13:52:16;98699.88;;;28.90;68.27
10115;BME280;5097;43.260;27.812;2023-08-06T13:55:04;98702.00;;;29.12;66.71
10115;BME280;5097;43.260;27.812;2023-08-06T13:57:49;98675.31;;;28.85;67.14
10115;BME280;5097;43.260;27.812;2023-08-06T14:00:35;98691.13;;;29.12;67.25
10115;BME280;5097;43.260;27.812;2023-08-06T14:03:19;98704.03;;;29.81;65.15
10115;BME280;5097;43.260;27.812;2023-08-06T14:06:03;98670.28;;;30.11;63.43
10115;BME280;5097;43.260;27.812;2023-08-06T14:08:47;98685.75;;;29.93;62.44
10115;BME280;5097;43.260;27.812;2023-08-06T14:11:31;98683.34;;;30.25;64.55
10115;BME280;5097;43.260;27.812;2023-08-06T14:14:15;98695.56;;;30.23;60.35
10115;BME280;5097;43.260;27.812;2023-08-06T14:17:00;98689.25;;;30.51;62.08
10115;BME280;5097;43.260;27.812;2023-08-06T14:19:45;98652.97;;;30.17;63.55
10115;BME280;5097;43.260;27.812;2023-08-06T14:22:29;98658.56;;;30.95;60.53
10115;BME280;5097;43.260;27.812;2023-08-06T14:25:13;98644.53;;;30.86;59.37
10115;BME280;5097;43.260;27.812;2023-08-06T14:27:57;98624.31;;;29.39;60.50
10115;BME280;5097;43.260;27.812;2023-08-06T14:30:41;98632.75;;;29.55;61.21